createdAt,value
2022-10-23T00:06:22.895Z,952.64
2022-10-23T00:21:24.813Z,952.77
2022-10-23T00:36:26.652Z,952.94
2022-10-23T00:51:28.475Z,953.05
2022-10-23T01:06:30.305Z,953.26
2022-10-23T01:21:32.320Z,953.38
2022-10-23T01:36:34.147Z,953.52
2022-10-23T01:51:36.016Z,953.68
2022-10-23T02:06:37.839Z,953.82
2022-10-23T02:21:39.675Z,954.03
2022-10-23T02:36:41.648Z,954.15
2022-10-23T02:51:43.479Z,954.32
2022-10-23T03:06:45.394Z,954.47
2022-10-23T03:21:47.253Z,954.64
2022-10-23T03:36:49.063Z,954.79
2022-10-23T03:51:50.906Z,954.93
2022-10-23T04:06:52.782Z,955.03
2022-10-23T04:21:54.748Z,955.21
2022-10-23T04:36:56.583Z,955.38
2022-10-23T04:51:58.386Z,955.51
2022-10-23T05:07:00.221Z,955.68
2022-10-23T05:22:02.111Z,955.88
2022-10-23T05:37:03.941Z,956.07
2022-10-23T05:52:05.797Z,956.21
2022-10-23T06:07:07.637Z,956.33
2022-10-23T06:22:09.540Z,956.54
2022-10-23T06:37:11.365Z,956.67
2022-10-23T06:52:23.138Z,956.77
2022-10-23T07:07:36.696Z,956.86
2022-10-23T07:22:38.529Z,957.01
2022-10-23T07:37:40.468Z,957.15
2022-10-23T07:52:42.641Z,957.28
2022-10-23T08:07:44.752Z,957.46
2022-10-23T08:22:46.620Z,957.56
2022-10-23T08:37:48.493Z,957.8
2022-10-23T08:52:50.349Z,957.88
2022-10-23T09:07:52.216Z,958.07
2022-10-23T09:22:54.120Z,958.26
2022-10-23T09:37:56.007Z,958.39
2022-10-23T09:52:57.831Z,958.62
2022-10-23T10:07:59.683Z,958.77
2022-10-23T10:23:01.533Z,958.99
2022-10-23T10:38:03.404Z,959.18
2022-10-23T10:53:05.257Z,959.31
2022-10-23T11:08:07.109Z,959.58
2022-10-23T11:23:08.970Z,959.76
2022-10-23T11:38:10.813Z,960.01
2022-10-23T11:53:14.023Z,960.23
2022-10-23T12:08:16.885Z,960.45
2022-10-23T12:23:18.756Z,960.69
2022-10-23T12:38:20.588Z,960.99
2022-10-23T12:53:22.476Z,961.17
2022-10-23T13:08:24.292Z,961.48
2022-10-23T13:23:26.207Z,961.79
2022-10-23T13:38:28.045Z,962.07
2022-10-23T13:53:29.901Z,962.29
2022-10-23T14:08:31.777Z,962.45
2022-10-23T14:23:33.672Z,962.65
2022-10-23T14:38:35.557Z,962.85
2022-10-23T14:53:37.387Z,963.26
2022-10-23T15:08:39.185Z,963.55
2022-10-23T15:23:41.027Z,963.73
2022-10-23T15:38:42.878Z,964.04
2022-10-23T15:53:44.736Z,964.31
2022-10-23T16:08:46.686Z,964.47
2022-10-23T16:23:48.685Z,964.56
2022-10-23T16:38:50.619Z,964.53
2022-10-23T16:53:52.482Z,964.65
2022-10-23T17:08:54.385Z,964.63
2022-10-23T17:23:56.344Z,964.78
2022-10-23T17:38:58.216Z,964.82
2022-10-23T17:54:00.024Z,964.92
2022-10-23T18:09:01.854Z,965.05
2022-10-23T18:24:03.726Z,965.2
2022-10-23T18:39:05.573Z,965.21
2022-10-23T18:54:07.408Z,965.17
2022-10-23T19:09:10.322Z,965.03
2022-10-23T19:24:17.185Z,965.08
2022-10-23T19:39:19.023Z,965.04
2022-10-23T19:54:20.845Z,965.1
2022-10-23T20:09:22.704Z,964.96
2022-10-23T20:24:24.563Z,965.09
2022-10-23T20:39:26.434Z,965.23
2022-10-23T20:54:28.264Z,965.23
2022-10-23T21:09:30.147Z,965.34
2022-10-23T21:24:32.062Z,965.47
2022-10-23T21:39:33.922Z,965.45
2022-10-23T21:54:35.765Z,965.51
2022-10-23T22:09:37.624Z,965.51
2022-10-23T22:24:39.601Z,965.45
2022-10-23T22:39:41.479Z,965.46
2022-10-23T22:54:43.301Z,965.62
2022-10-23T23:09:45.185Z,965.51
2022-10-23T23:24:47.075Z,965.55
2022-10-23T23:39:48.892Z,965.72
2022-10-23T23:54:50.718Z,965.82
